sensor_id;sensor_type;location;lat;lon;timestamp;temperature;humidity
9544;DHT22;30418;51.45933468;7.33152330;2023-06-05T00:02:26;21.40;40.00
9544;DHT22;30418;51.45933468;7.33152330;2023-06-05T00:04:55;21.30;40.30
9544;DHT22;30418;51.45933468;7.33152330;2023-06-05T00:07:24;21.30;40.10
9544;DHT22;30418;51.45933468;7.33152330;2023-06-05T00:09:53;21.30;40.40
9544;DHT22;30418;51.45933468;7.33152330;2023-06-05T00:12:22;21.30;40.50
9544;DHT22;30418;51.45933468;7.33152330;2023-06-05T00:14:50;21.30;40.60
9544;DHT22;30418;51.45933468;7.33152330;2023-06-05T00:17:19;21.20;40.80
9544;DHT22;30418;51.45933468;7.33152330;2023-06-05T00:19:49;21.20;40.70
9544;DHT22;30418;51.45933468;7.33152330;2023-06-05T00:22:18;21.20;40.90
9544;DHT22;30418;51.45933468;7.33152330;2023-06-05T00:24:46;21.20;40.90
9544;DHT22;30418;51.45933468;7.33152330;2023-06-05T00:27:15;21.20;40.90
9544;DHT22;30418;51.45933468;7.33152330;2023-06-05T00:29:43;21.10;40.80
9544;DHT22;30418;51.45933468;7.33152330;2023-06-05T00:32:12;21.20;40.90
9544;DHT22;30418;51.45933468;7.33152330;2023-06-05T00:34:41;21.10;40.90
9544;DHT22;30418;51.45933468;7.33152330;2023-06-05T00:37:12;21.10;41.00
9544;DHT22;30418;51.45933468;7.33152330;2023-06-05T00:39:41;21.10;41.30
9544;DHT22;30418;51.45933468;7.33152330;2023-06-05T00:42:10;21.10;41.20
9544;DHT22;30418;51.45933468;7.33152330;2023-06-05T00:44:39;21.10;41.30
9544;DHT22;30418;51.45933468;7.33152330;2023-06-05T00:47:08;21.10;41.40
9544;DHT22;30418;51.45933468;7.33152330;2023-06-05T00:49:36;21.10;41.40
9544;DHT22;30418;51.45933468;7.33152330;2023-06-05T00:52:05;21.00;41.40
9544;DHT22;30418;51.45933468;7.33152330;2023-06-05T00:54:36;21.00;41.50
9544;DHT22;30418;51.45933468;7.33152330;2023-06-05T00:57:04;20.90;41.50
9544;DHT22;30418;51.45933468;7.33152330;2023-06-05T00:59:35;20.90;41.50
9544;DHT22;30418;51.45933468;7.33152330;2023-06-05T01:02:04;20.90;41.70
9544;DHT22;30418;51.45933468;7.33152330;2023-06-05T01:04:34;20.80;41.70
9544;DHT22;30418;51.45933468;7.33152330;2023-06-05T01:07:04;20.80;41.70
9544;DHT22;30418;51.45933468;7.33152330;2023-06-05T01:09:33;20.80;41.80
9544;DHT22;30418;51.45933468;7.33152330;2023-06-05T01:12:08;20.80;41.90
9544;DHT22;30418;51.45933468;7.33152330;2023-06-05T01:14:41;20.70;42.20
9544;DHT22;30418;51.45933468;7.33152330;2023-06-05T01:17:13;20.70;41.90
9544;DHT22;30418;51.45933468;7.33152330;2023-06-05T01:19:46;20.70;42.00
9544;DHT22;30418;51.45933468;7.33152330;2023-06-05T01:22:17;20.60;42.00
9544;DHT22;30418;51.45933468;7.33152330;2023-06-05T01:24:47;20.60;42.10
9544;DHT22;30418;51.45933468;7.33152330;2023-06-05T01:27:21;20.60;42.30
9544;DHT22;30418;51.45933468;7.33152330;2023-06-05T01:30:01;20.60;42.40
9544;DHT22;30418;51.45933468;7.33152330;2023-06-05T01:32:37;20.50;42.30
9544;DHT22;30418;51.45933468;7.33152330;2023-06-05T01:35:10;20.50;42.50
9544;DHT22;30418;51.45933468;7.33152330;2023-06-05T01:37:48;20.40;42.40
9544;DHT22;30418;51.45933468;7.33152330;2023-06-05T01:40:20;20.40;42.60
9544;DHT22;30418;51.45933468;7.33152330;2023-06-05T01:42:51;20.30;42.70
9544;DHT22;30418;51.45933468;7.33152330;2023-06-05T01:45:21;20.30;42.70
9544;DHT22;30418;51.45933468;7.33152330;2023-06-05T01:47:50;20.20;42.70
9544;DHT22;30418;51.45933468;7.33152330;2023-06-05T01:50:21;20.20;42.90
9544;DHT22;30418;51.45933468;7.33152330;2023-06-05T01:52:50;20.10;43.00
9544;DHT22;30418;51.45933468;7.33152330;2023-06-05T01:55:22;20.10;43.20
9544;DHT22;30418;51.45933468;7.33152330;2023-06-05T01:57:51;20.00;43.30
9544;DHT22;30418;51.45933468;7.33152330;2023-06-05T02:00:20;19.90;43.20
9544;DHT22;30418;51.45933468;7.33152330;2023-06-05T02:02:49;19.90;43.30
9544;DHT22;30418;51.45933468;7.33152330;2023-06-05T02:05:18;19.90;43.40
9544;DHT22;30418;51.45933468;7.33152330;2023-06-05T02:07:49;19.80;43.50
9544;DHT22;30418;51.45933468;7.33152330;2023-06-05T02:10:22;19.80;43.60
9544;DHT22;30418;51.45933468;7.33152330;2023-06-05T02:12:51;19.80;43.70
9544;DHT22;30418;51.45933468;7.33152330;2023-06-05T02:15:19;19.70;43.70
9544;DHT22;30418;51.45933468;7.33152330;2023-06-05T02:17:49;19.70;43.80
9544;DHT22;30418;51.45933468;7.33152330;2023-06-05T02:20:25;19.70;43.80
9544;DHT22;30418;51.45933468;7.33152330;2023-06-05T02:22:53;19.60;44.80
9544;DHT22;30418;51.45933468;7.33152330;2023-06-05T02:25:23;19.60;43.90
9544;DHT22;30418;51.45933468;7.33152330;2023-06-05T02:27:54;19.60;44.10
9544;DHT22;30418;51.45933468;7.33152330;2023-06-05T02:30:23;19.60;44.10
9544;DHT22;30418;51.45933468;7.33152330;2023-06-05T02:32:52;19.50;44.00
9544;DHT22;30418;51.45933468;7.33152330;2023-06-05T02:35:24;19.50;44.50
9544;DHT22;30418;51.45933468;7.33152330;2023-06-05T02:37:53;19.50;44.20
9544;DHT22;30418;51.45933468;7.33152330;2023-06-05T02:40:25;19.50;44.20
9544;DHT22;30418;51.45933468;7.33152330;2023-06-05T02:42:53;19.50;44.30
9544;DHT22;30418;51.45933468;7.33152330;2023-06-05T02:45:22;19.50;44.30
9544;DHT22;30418;51.45933468;7.33152330;2023-06-05T02:47:52;19.50;44.30
9544;DHT22;30418;51.45933468;7.33152330;2023-06-05T02:50:20;19.50;44.40
9544;DHT22;30418;51.45933468;7.33152330;2023-06-05T02:52:52;19.50;44.50
9544;DHT22;30418;51.45933468;7.33152330;2023-06-05T02:55:30;19.50;44.40
9544;DHT22;30418;51.45933468;7.33152330;2023-06-05T02:58:04;19.50;44.40
9544;DHT22;30418;51.45933468;7.33152330;2023-06-05T03:00:44;19.50;44.40
9544;DHT22;30418;51.45933468;7.33152330;2023-06-05T03:03:14;19.50;44.40
9544;DHT22;30418;51.45933468;7.33152330;2023-06-05T03:05:47;19.50;44.40
9544;DHT22;30418;51.45933468;7.33152330;2023-06-05T03:08:17;19.50;44.50
9544;DHT22;30418;51.45933468;7.33152330;2023-06-05T03:10:48;19.40;44.40
9544;DHT22;30418;51.45933468;7.33152330;2023-06-05T03:13:19;19.40;44.50
9544;DHT22;30418;51.45933468;7.33152330;2023-06-05T03:15:48;19.40;44.50
9544;DHT22;30418;51.45933468;7.33152330;2023-06-05T03:18:21;19.30;44.50
9544;DHT22;30418;51.45933468;7.33152330;2023-06-05T03:20:50;19.30;44.50
9544;DHT22;30418;51.45933468;7.33152330;2023-06-05T03:23:22;19.20;44.40
9544;DHT22;30418;51.45933468;7.33152330;2023-06-05T03:25:54;19.20;44.50
9544;DHT22;30418;51.45933468;7.33152330;2023-06-05T03:28:24;19.20;44.70
9544;DHT22;30418;51.45933468;7.33152330;2023-06-05T03:30:56;19.20;44.70
9544;DHT22;30418;51.45933468;7.33152330;2023-06-05T03:33:30;19.20;44.70
9544;DHT22;30418;51.45933468;7.33152330;2023-06-05T03:35:59;19.10;44.70
9544;DHT22;30418;51.45933468;7.33152330;2023-06-05T03:38:27;19.10;44.90
9544;DHT22;30418;51.45933468;7.33152330;2023-06-05T03:40:57;19.10;44.90
9544;DHT22;30418;51.45933468;7.33152330;2023-06-05T03:43:26;19.20;45.00
9544;DHT22;30418;51.45933468;7.33152330;2023-06-05T03:45:54;19.10;44.90
9544;DHT22;30418;51.45933468;7.33152330;2023-06-05T03:48:23;19.10;44.90
9544;DHT22;30418;51.45933468;7.33152330;2023-06-05T03:50:52;19.10;44.90
9544;DHT22;30418;51.45933468;7.33152330;2023-06-05T03:53:23;19.00;44.90
9544;DHT22;30418;51.45933468;7.33152330;2023-06-05T03:55:51;19.10;45.00
9544;DHT22;30418;51.45933468;7.33152330;2023-06-05T03:58:26;19.00;45.00
9544;DHT22;30418;51.45933468;7.33152330;2023-06-05T04:00:56;19.10;45.20
9544;DHT22;30418;51.45933468;7.33152330;2023-06-05T04:03:25;19.00;45.20
9544;DHT22;30418;51.45933468;7.33152330;2023-06-05T04:05:56;19.00;45.20
9544;DHT22;30418;51.45933468;7.33152330;2023-06-05T04:08:25;19.00;45.90
9544;DHT22;30418;51.45933468;7.33152330;2023-06-05T04:10:53;19.00;45.20
9544;DHT22;30418;51.45933468;7.33152330;2023-06-05T04:13:22;19.00;45.20
9544;DHT22;30418;51.45933468;7.33152330;2023-06-05T04:15:53;19.00;45.30
9544;DHT22;30418;51.45933468;7.33152330;2023-06-05T04:18:22;19.00;45.40
9544;DHT22;30418;51.45933468;7.33152330;2023-06-05T04:20:52;19.00;45.40
9544;DHT22;30418;51.45933468;7.33152330;2023-06-05T04:23:21;19.00;45.40
9544;DHT22;30418;51.45933468;7.33152330;2023-06-05T04:25:50;18.90;45.40
9544;DHT22;30418;51.45933468;7.33152330;2023-06-05T04:28:19;18.90;45.40
9544;DHT22;30418;51.45933468;7.33152330;2023-06-05T04:30:52;18.90;45.40
9544;DHT22;30418;51.45933468;7.33152330;2023-06-05T04:33:23;18.80;45.40
9544;DHT22;30418;51.45933468;7.33152330;2023-06-05T04:35:51;18.80;45.50
9544;DHT22;30418;51.45933468;7.33152330;2023-06-05T04:38:23;18.80;45.60
9544;DHT22;30418;51.45933468;7.33152330;2023-06-05T04:40:52;18.80;45.70
9544;DHT22;30418;51.45933468;7.33152330;2023-06-05T04:43:21;18.80;45.70
9544;DHT22;30418;51.45933468;7.33152330;2023-06-05T04:45:50;18.90;45.80
9544;DHT22;30418;51.45933468;7.33152330;2023-06-05T04:48:21;18.80;45.70
9544;DHT22;30418;51.45933468;7.33152330;2023-06-05T04:50:51;18.90;45.80
9544;DHT22;30418;51.45933468;7.33152330;2023-06-05T04:53:20;18.90;45.80
9544;DHT22;30418;51.45933468;7.33152330;2023-06-05T04:55:49;18.90;45.80
9544;DHT22;30418;51.45933468;7.33152330;2023-06-05T04:58:19;18.90;45.80
9544;DHT22;30418;51.45933468;7.33152330;2023-06-05T05:00:49;18.90;45.80
9544;DHT22;30418;51.45933468;7.33152330;2023-06-05T05:03:21;18.90;45.90
9544;DHT22;30418;51.45933468;7.33152330;2023-06-05T05:05:50;18.90;45.90
9544;DHT22;30418;51.45933468;7.33152330;2023-06-05T05:08:19;18.90;45.80
9544;DHT22;30418;51.45933468;7.33152330;2023-06-05T05:10:47;19.00;45.90
9544;DHT22;30418;51.45933468;7.33152330;2023-06-05T05:13:16;19.00;46.00
9544;DHT22;30418;51.45933468;7.33152330;2023-06-05T05:15:46;19.00;46.00
9544;DHT22;30418;51.45933468;7.33152330;2023-06-05T05:18:15;19.00;46.00
9544;DHT22;30418;51.45933468;7.33152330;2023-06-05T05:20:46;19.00;46.00
9544;DHT22;30418;51.45933468;7.33152330;2023-06-05T05:23:15;19.10;46.10
9544;DHT22;30418;51.45933468;7.33152330;2023-06-05T05:25:45;19.10;46.00
9544;DHT22;30418;51.45933468;7.33152330;2023-06-05T05:28:14;19.10;46.10
9544;DHT22;30418;51.45933468;7.33152330;2023-06-05T05:30:43;19.10;46.10
9544;DHT22;30418;51.45933468;7.33152330;2023-06-05T05:33:11;19.10;46.20
9544;DHT22;30418;51.45933468;7.33152330;2023-06-05T05:35:42;19.10;46.20
9544;DHT22;30418;51.45933468;7.33152330;2023-06-05T05:38:14;19.10;46.20
9544;DHT22;30418;51.45933468;7.33152330;2023-06-05T05:40:43;19.10;46.40
9544;DHT22;30418;51.45933468;7.33152330;2023-06-05T05:43:12;19.10;46.30
9544;DHT22;30418;51.45933468;7.33152330;2023-06-05T05:45:42;19.20;46.40
9544;DHT22;30418;51.45933468;7.33152330;2023-06-05T05:48:12;19.20;46.40
9544;DHT22;30418;51.45933468;7.33152330;2023-06-05T05:50:40;19.20;46.40
9544;DHT22;30418;51.45933468;7.33152330;2023-06-05T05:53:09;19.20;46.40
9544;DHT22;30418;51.45933468;7.33152330;2023-06-05T05:55:39;19.20;46.40
9544;DHT22;30418;51.45933468;7.33152330;2023-06-05T05:58:08;19.20;46.60
9544;DHT22;30418;51.45933468;7.33152330;2023-06-05T06:00:36;19.20;46.60
9544;DHT22;30418;51.45933468;7.33152330;2023-06-05T06:03:05;19.20;47.30
9544;DHT22;30418;51.45933468;7.33152330;2023-06-05T06:05:34;19.20;46.60
9544;DHT22;30418;51.45933468;7.33152330;2023-06-05T06:08:04;19.20;46.70
9544;DHT22;30418;51.45933468;7.33152330;2023-06-05T06:10:33;19.20;46.80
9544;DHT22;30418;51.45933468;7.33152330;2023-06-05T06:13:04;19.20;46.80
9544;DHT22;30418;51.45933468;7.33152330;2023-06-05T06:15:33;19.30;47.00
9544;DHT22;30418;51.45933468;7.33152330;2023-06-05T06:18:04;19.30;47.00
9544;DHT22;30418;51.45933468;7.33152330;2023-06-05T06:20:32;19.30;47.00
9544;DHT22;30418;51.45933468;7.33152330;2023-06-05T06:23:01;19.40;47.10
9544;DHT22;30418;51.45933468;7.33152330;2023-06-05T06:25:31;19.40;47.10
9544;DHT22;30418;51.45933468;7.33152330;2023-06-05T06:28:00;19.40;47.10
9544;DHT22;30418;51.45933468;7.33152330;2023-06-05T06:30:30;19.40;47.10
9544;DHT22;30418;51.45933468;7.33152330;2023-06-05T06:33:01;19.50;47.20
9544;DHT22;30418;51.45933468;7.33152330;2023-06-05T06:35:31;19.50;47.20
9544;DHT22;30418;51.45933468;7.33152330;2023-06-05T06:38:00;19.50;47.10
9544;DHT22;30418;51.45933468;7.33152330;2023-06-05T06:40:28;19.60;47.20
9544;DHT22;30418;51.45933468;7.33152330;2023-06-05T06:42:57;19.60;47.20
9544;DHT22;30418;51.45933468;7.33152330;2023-06-05T06:45:39;19.60;47.20
9544;DHT22;30418;51.45933468;7.33152330;2023-06-05T06:48:08;19.60;47.30
9544;DHT22;30418;51.45933468;7.33152330;2023-06-05T06:50:36;19.60;47.20
9544;DHT22;30418;51.45933468;7.33152330;2023-06-05T06:53:05;19.60;47.20
9544;DHT22;30418;51.45933468;7.33152330;2023-06-05T06:55:33;19.60;47.30
9544;DHT22;30418;51.45933468;7.33152330;2023-06-05T06:58:03;19.50;47.20
9544;DHT22;30418;51.45933468;7.33152330;2023-06-05T07:00:32;19.50;47.30
9544;DHT22;30418;51.45933468;7.33152330;2023-06-05T07:03:02;19.50;47.40
9544;DHT22;30418;51.45933468;7.33152330;2023-06-05T07:05:32;19.50;47.50
9544;DHT22;30418;51.45933468;7.33152330;2023-06-05T07:08:04;19.60;47.50
9544;DHT22;30418;51.45933468;7.33152330;2023-06-05T07:10:33;19.60;47.50
9544;DHT22;30418;51.45933468;7.33152330;2023-06-05T07:13:02;19.60;47.60
9544;DHT22;30418;51.45933468;7.33152330;2023-06-05T07:15:30;19.60;47.60
9544;DHT22;30418;51.45933468;7.33152330;2023-06-05T07:17:59;19.60;47.70
9544;DHT22;30418;51.45933468;7.33152330;2023-06-05T07:20:29;19.70;47.90
9544;DHT22;30418;51.45933468;7.33152330;2023-06-05T07:22:57;19.70;47.80
9544;DHT22;30418;51.45933468;7.33152330;2023-06-05T07:25:26;19.70;47.70
9544;DHT22;30418;51.45933468;7.33152330;2023-06-05T07:27:55;19.80;47.80
9544;DHT22;30418;51.45933468;7.33152330;2023-06-05T07:30:26;19.80;47.80
9544;DHT22;30418;51.45933468;7.33152330;2023-06-05T07:32:55;19.80;47.80
9544;DHT22;30418;51.45933468;7.33152330;2023-06-05T07:35:24;19.90;47.90
9544;DHT22;30418;51.45933468;7.33152330;2023-06-05T07:37:54;19.90;48.00
9544;DHT22;30418;51.45933468;7.33152330;2023-06-05T07:40:22;19.90;48.00
9544;DHT22;30418;51.45933468;7.33152330;2023-06-05T07:42:51;20.00;48.10
9544;DHT22;30418;51.45933468;7.33152330;2023-06-05T07:45:20;20.00;48.10
9544;DHT22;30418;51.45933468;7.33152330;2023-06-05T07:47:48;20.10;48.20
9544;DHT22;30418;51.45933468;7.33152330;2023-06-05T07:50:17;20.10;48.00
9544;DHT22;30418;51.45933468;7.33152330;2023-06-05T07:52:45;20.20;48.00
9544;DHT22;30418;51.45933468;7.33152330;2023-06-05T07:55:15;20.20;48.00
9544;DHT22;30418;51.45933468;7.33152330;2023-06-05T07:57:44;20.30;48.20
9544;DHT22;30418;51.45933468;7.33152330;2023-06-05T08:00:14;20.30;48.20
9544;DHT22;30418;51.45933468;7.33152330;2023-06-05T08:02:45;20.40;48.30
9544;DHT22;30418;51.45933468;7.33152330;2023-06-05T08:05:15;20.50;48.40
9544;DHT22;30418;51.45933468;7.33152330;2023-06-05T08:07:44;20.50;48.40
9544;DHT22;30418;51.45933468;7.33152330;2023-06-05T08:10:15;20.60;48.30
9544;DHT22;30418;51.45933468;7.33152330;2023-06-05T08:12:43;20.70;48.30
9544;DHT22;30418;51.45933468;7.33152330;2023-06-05T08:15:12;20.80;48.20
9544;DHT22;30418;51.45933468;7.33152330;2023-06-05T08:17:40;20.90;48.30
9544;DHT22;30418;51.45933468;7.33152330;2023-06-05T08:20:09;20.90;48.10
9544;DHT22;30418;51.45933468;7.33152330;2023-06-05T08:22:39;21.00;48.20
9544;DHT22;30418;51.45933468;7.33152330;2023-06-05T08:25:08;21.10;48.10
9544;DHT22;30418;51.45933468;7.33152330;2023-06-05T08:27:38;21.10;48.00
9544;DHT22;30418;51.45933468;7.33152330;2023-06-05T08:30:07;21.20;47.90
9544;DHT22;30418;51.45933468;7.33152330;2023-06-05T08:32:37;21.20;47.70
9544;DHT22;30418;51.45933468;7.33152330;2023-06-05T08:35:06;21.30;47.50
9544;DHT22;30418;51.45933468;7.33152330;2023-06-05T08:37:35;21.30;47.50
9544;DHT22;30418;51.45933468;7.33152330;2023-06-05T08:40:04;21.40;47.50
9544;DHT22;30418;51.45933468;7.33152330;2023-06-05T08:42:39;21.40;47.50
9544;DHT22;30418;51.45933468;7.33152330;2023-06-05T08:45:08;21.50;47.80
9544;DHT22;30418;51.45933468;7.33152330;2023-06-05T08:47:38;21.50;47.90
9544;DHT22;30418;51.45933468;7.33152330;2023-06-05T08:50:08;21.60;48.60
9544;DHT22;30418;51.45933468;7.33152330;2023-06-05T08:52:38;21.60;47.70
9544;DHT22;30418;51.45933468;7.33152330;2023-06-05T08:55:07;21.70;47.70
9544;DHT22;30418;51.45933468;7.33152330;2023-06-05T08:57:40;21.80;47.70
9544;DHT22;30418;51.45933468;7.33152330;2023-06-05T09:00:10;21.80;47.50
9544;DHT22;30418;51.45933468;7.33152330;2023-06-05T09:02:42;21.80;47.40
9544;DHT22;30418;51.45933468;7.33152330;2023-06-05T09:05:14;21.90;47.50
9544;DHT22;30418;51.45933468;7.33152330;2023-06-05T09:07:43;21.90;47.30
9544;DHT22;30418;51.45933468;7.33152330;2023-06-05T09:10:23;22.00;47.30
9544;DHT22;30418;51.45933468;7.33152330;2023-06-05T09:12:55;22.10;47.50
9544;DHT22;30418;51.45933468;7.33152330;2023-06-05T09:15:27;22.10;47.50
9544;DHT22;30418;51.45933468;7.33152330;2023-06-05T09:18:07;22.20;47.30
9544;DHT22;30418;51.45933468;7.33152330;2023-06-05T09:20:39;22.30;46.90
9544;DHT22;30418;51.45933468;7.33152330;2023-06-05T09:23:22;22.40;47.00
9544;DHT22;30418;51.45933468;7.33152330;2023-06-05T09:25:55;22.50;47.00
9544;DHT22;30418;51.45933468;7.33152330;2023-06-05T09:28:27;22.50;47.00
9544;DHT22;30418;51.45933468;7.33152330;2023-06-05T09:30:57;22.60;47.10
9544;DHT22;30418;51.45933468;7.33152330;2023-06-05T09:33:27;22.80;47.10
9544;DHT22;30418;51.45933468;7.33152330;2023-06-05T09:36:05;22.80;46.70
9544;DHT22;30418;51.45933468;7.33152330;2023-06-05T09:38:36;22.90;46.60
9544;DHT22;30418;51.45933468;7.33152330;2023-06-05T09:41:06;22.90;46.40
9544;DHT22;30418;51.45933468;7.33152330;2023-06-05T09:43:37;23.00;46.30
9544;DHT22;30418;51.45933468;7.33152330;2023-06-05T09:46:07;23.00;46.40
9544;DHT22;30418;51.45933468;7.33152330;2023-06-05T09:48:37;23.00;46.40
9544;DHT22;30418;51.45933468;7.33152330;2023-06-05T09:51:11;23.10;46.60
9544;DHT22;30418;51.45933468;7.33152330;2023-06-05T09:53:42;23.20;46.70
9544;DHT22;30418;51.45933468;7.33152330;2023-06-05T09:56:13;23.30;46.80
9544;DHT22;30418;51.45933468;7.33152330;2023-06-05T09:58:48;23.30;46.60
9544;DHT22;30418;51.45933468;7.33152330;2023-06-05T10:01:23;23.40;46.60
9544;DHT22;30418;51.45933468;7.33152330;2023-06-05T10:03:57;23.40;46.50
9544;DHT22;30418;51.45933468;7.33152330;2023-06-05T10:06:27;23.50;46.50
9544;DHT22;30418;51.45933468;7.33152330;2023-06-05T10:08:56;23.50;46.40
9544;DHT22;30418;51.45933468;7.33152330;2023-06-05T10:11:27;23.60;46.50
9544;DHT22;30418;51.45933468;7.33152330;2023-06-05T10:13:57;23.60;46.30
9544;DHT22;30418;51.45933468;7.33152330;2023-06-05T10:16:27;23.70;46.30
9544;DHT22;30418;51.45933468;7.33152330;2023-06-05T10:18:57;23.80;46.10
9544;DHT22;30418;51.45933468;7.33152330;2023-06-05T10:21:27;23.80;45.70
9544;DHT22;30418;51.45933468;7.33152330;2023-06-05T10:23:59;23.80;45.60
9544;DHT22;30418;51.45933468;7.33152330;2023-06-05T10:30:12;23.90;45.70
9544;DHT22;30418;51.45933468;7.33152330;2023-06-05T10:33:11;24.00;45.70
9544;DHT22;30418;51.45933468;7.33152330;2023-06-05T10:36:07;24.10;45.80
9544;DHT22;30418;51.45933468;7.33152330;2023-06-05T10:38:43;24.10;45.50
9544;DHT22;30418;51.45933468;7.33152330;2023-06-05T10:41:12;24.20;45.60
9544;DHT22;30418;51.45933468;7.33152330;2023-06-05T10:43:48;24.30;45.50
9544;DHT22;30418;51.45933468;7.33152330;2023-06-05T10:46:37;24.40;45.20
9544;DHT22;30418;51.45933468;7.33152330;2023-06-05T10:49:07;24.40;44.80
9544;DHT22;30418;51.45933468;7.33152330;2023-06-05T10:51:37;24.50;44.90
9544;DHT22;30418;51.45933468;7.33152330;2023-06-05T10:54:07;24.50;44.60
9544;DHT22;30418;51.45933468;7.33152330;2023-06-05T10:56:56;24.60;44.70
9544;DHT22;30418;51.45933468;7.33152330;2023-06-05T10:59:28;24.70;44.20
9544;DHT22;30418;51.45933468;7.33152330;2023-06-05T11:02:24;24.70;44.40
9544;DHT22;30418;51.45933468;7.33152330;2023-06-05T11:05:05;24.70;44.20
9544;DHT22;30418;51.45933468;7.33152330;2023-06-05T11:07:35;24.80;44.20
9544;DHT22;30418;51.45933468;7.33152330;2023-06-05T11:10:06;24.80;44.30
9544;DHT22;30418;51.45933468;7.33152330;2023-06-05T11:13:01;24.90;44.20
9544;DHT22;30418;51.45933468;7.33152330;2023-06-05T11:15:36;25.00;43.90
9544;DHT22;30418;51.45933468;7.33152330;2023-06-05T11:18:29;25.00;43.60
9544;DHT22;30418;51.45933468;7.33152330;2023-06-05T11:21:01;25.10;43.40
9544;DHT22;30418;51.45933468;7.33152330;2023-06-05T11:23:30;25.20;43.50
9544;DHT22;30418;51.45933468;7.33152330;2023-06-05T11:29:15;25.20;43.00
9544;DHT22;30418;51.45933468;7.33152330;2023-06-05T11:31:44;25.30;43.00
9544;DHT22;30418;51.45933468;7.33152330;2023-06-05T11:34:15;25.30;42.80
9544;DHT22;30418;51.45933468;7.33152330;2023-06-05T11:36:44;25.40;42.40
9544;DHT22;30418;51.45933468;7.33152330;2023-06-05T11:39:13;25.40;41.70
9544;DHT22;30418;51.45933468;7.33152330;2023-06-05T11:41:46;25.50;41.40
9544;DHT22;30418;51.45933468;7.33152330;2023-06-05T11:44:15;25.50;40.90
9544;DHT22;30418;51.45933468;7.33152330;2023-06-05T11:46:44;25.50;40.80
9544;DHT22;30418;51.45933468;7.33152330;2023-06-05T11:49:25;25.50;40.40
9544;DHT22;30418;51.45933468;7.33152330;2023-06-05T11:51:55;25.50;39.00
9544;DHT22;30418;51.45933468;7.33152330;2023-06-05T11:54:28;25.60;40.00
9544;DHT22;30418;51.45933468;7.33152330;2023-06-05T11:57:00;25.60;39.20
9544;DHT22;30418;51.45933468;7.33152330;2023-06-05T11:59:36;25.60;40.00
9544;DHT22;30418;51.45933468;7.33152330;2023-06-05T12:02:05;25.60;39.60
9544;DHT22;30418;51.45933468;7.33152330;2023-06-05T12:04:39;25.70;39.70
9544;DHT22;30418;51.45933468;7.33152330;2023-06-05T12:07:09;25.70;39.10
9544;DHT22;30418;51.45933468;7.33152330;2023-06-05T12:09:39;25.80;39.40
9544;DHT22;30418;51.45933468;7.33152330;2023-06-05T12:12:08;25.90;39.50
9544;DHT22;30418;51.45933468;7.33152330;2023-06-05T12:14:37;25.90;39.20
9544;DHT22;30418;51.45933468;7.33152330;2023-06-05T12:17:09;26.00;39.30
9544;DHT22;30418;51.45933468;7.33152330;2023-06-05T12:19:40;26.10;39.40
9544;DHT22;30418;51.45933468;7.33152330;2023-06-05T12:22:08;26.20;39.50
9544;DHT22;30418;51.45933468;7.33152330;2023-06-05T12:24:37;26.20;39.30
9544;DHT22;30418;51.45933468;7.33152330;2023-06-05T12:27:06;26.30;38.40
9544;DHT22;30418;51.45933468;7.33152330;2023-06-05T12:29:35;26.40;37.90
9544;DHT22;30418;51.45933468;7.33152330;2023-06-05T12:32:21;26.40;37.80
9544;DHT22;30418;51.45933468;7.33152330;2023-06-05T12:34:53;26.50;37.10
9544;DHT22;30418;51.45933468;7.33152330;2023-06-05T12:37:31;26.50;37.80
9544;DHT22;30418;51.45933468;7.33152330;2023-06-05T12:40:05;26.50;37.80
9544;DHT22;30418;51.45933468;7.33152330;2023-06-05T12:42:39;26.60;38.10
9544;DHT22;30418;51.45933468;7.33152330;2023-06-05T12:45:11;26.70;38.00
9544;DHT22;30418;51.45933468;7.33152330;2023-06-05T12:47:40;26.70;37.80
9544;DHT22;30418;51.45933468;7.33152330;2023-06-05T12:50:12;26.80;37.70
9544;DHT22;30418;51.45933468;7.33152330;2023-06-05T12:52:41;26.90;37.30
9544;DHT22;30418;51.45933468;7.33152330;2023-06-05T12:55:10;26.90;37.60
9544;DHT22;30418;51.45933468;7.33152330;2023-06-05T12:57:39;27.00;37.50
9544;DHT22;30418;51.45933468;7.33152330;2023-06-05T13:00:08;27.10;37.40
9544;DHT22;30418;51.45933468;7.33152330;2023-06-05T13:02:41;27.10;37.20
9544;DHT22;30418;51.45933468;7.33152330;2023-06-05T13:05:14;27.20;37.20
9544;DHT22;30418;51.45933468;7.33152330;2023-06-05T13:07:43;27.30;37.10
9544;DHT22;30418;51.45933468;7.33152330;2023-06-05T13:10:12;27.30;37.00
9544;DHT22;30418;51.45933468;7.33152330;2023-06-05T13:12:41;27.30;36.70
9544;DHT22;30418;51.45933468;7.33152330;2023-06-05T13:15:10;27.40;36.90
9544;DHT22;30418;51.45933468;7.33152330;2023-06-05T13:17:39;27.40;36.50
9544;DHT22;30418;51.45933468;7.33152330;2023-06-05T13:20:08;27.40;36.30
9544;DHT22;30418;51.45933468;7.33152330;2023-06-05T13:22:39;27.40;36.40
9544;DHT22;30418;51.45933468;7.33152330;2023-06-05T13:25:09;27.50;36.40
9544;DHT22;30418;51.45933468;7.33152330;2023-06-05T13:27:39;27.40;36.10
9544;DHT22;30418;51.45933468;7.33152330;2023-06-05T13:30:08;27.50;36.10
9544;DHT22;30418;51.45933468;7.33152330;2023-06-05T13:32:37;27.50;35.70
9544;DHT22;30418;51.45933468;7.33152330;2023-06-05T13:35:07;27.60;35.80
9544;DHT22;30418;51.45933468;7.33152330;2023-06-05T13:37:38;27.60;35.80
9544;DHT22;30418;51.45933468;7.33152330;2023-06-05T13:40:08;27.70;35.70
9544;DHT22;30418;51.45933468;7.33152330;2023-06-05T13:42:38;27.80;35.70
9544;DHT22;30418;51.45933468;7.33152330;2023-06-05T13:45:08;27.80;35.50
9544;DHT22;30418;51.45933468;7.33152330;2023-06-05T13:47:37;27.90;35.70
9544;DHT22;30418;51.45933468;7.33152330;2023-06-05T13:50:07;28.00;35.10
9544;DHT22;30418;51.45933468;7.33152330;2023-06-05T13:52:36;28.00;34.70
9544;DHT22;30418;51.45933468;7.33152330;2023-06-05T13:55:07;28.10;34.40
9544;DHT22;30418;51.45933468;7.33152330;2023-06-05T13:57:35;28.10;34.60
9544;DHT22;30418;51.45933468;7.33152330;2023-06-05T14:00:05;28.10;34.40
9544;DHT22;30418;51.45933468;7.33152330;2023-06-05T14:02:36;28.10;34.20